Time;durP1;ratioP1;P1;durP2;ratioP2;P2;SDS_P1;SDS_P2;PMS_P1;PMS_P2;Temp;Humidity;BMP_temperature;BMP_pressure;BME280_temperature;BME280_humidity;BME280_pressure;Samples;Min_cycle;Max_cycle;Signal;HPM_P1;HPM_P2
2023/12/03 00:01:31;;;;;;;;;26.25;20.75;;;;;3.63;53.43;101492.53;4954454;28;45169;-66
2023/12/03 00:03:56;;;;;;;;;37.00;24.25;;;;;3.59;53.56;101491.63;4955104;28;73110;-65
2023/12/03 00:06:21;;;;;;;;;29.00;21.50;;;;;3.60;53.45;101489.88;4961291;28;75468;-65
2023/12/03 00:08:47;;;;;;;;;31.50;20.25;;;;;3.61;53.60;101491.59;4946900;28;71757;-63
2023/12/03 00:11:12;;;;;;;;;27.50;19.00;;;;;3.56;53.38;101483.81;4940623;28;69329;-64
2023/12/03 00:13:37;;;;;;;;;33.25;24.25;;;;;3.61;53.42;101502.84;4941694;28;59711;-63
2023/12/03 00:16:04;;;;;;;;;39.00;22.75;;;;;3.60;53.55;101501.09;4943196;28;47508;-65
2023/12/03 00:18:29;;;;;;;;;29.75;24.75;;;;;3.61;53.60;101501.97;4951976;28;45908;-64
2023/12/03 00:20:55;;;;;;;;;38.75;29.00;;;;;3.58;53.70;101497.63;4943451;28;45375;-65
2023/12/03 00:23:20;;;;;;;;;38.75;30.75;;;;;3.56;54.10;101501.03;4942335;28;70754;-64
2023/12/03 00:25:45;;;;;;;;;36.00;32.00;;;;;3.54;54.19;101498.44;4940120;28;66650;-65
2023/12/03 00:28:10;;;;;;;;;56.33;40.33;;;;;3.51;54.40;101495.81;4942830;28;63076;-65
2023/12/03 00:30:36;;;;;;;;;48.67;35.67;;;;;3.52;54.39;101496.66;4940230;28;68738;-64
2023/12/03 00:33:01;;;;;;;;;57.33;41.33;;;;;3.48;54.60;101498.34;4944549;28;60292;-65
2023/12/03 00:35:26;;;;;;;;;48.67;38.00;;;;;3.45;54.57;101500.00;4941997;28;74423;-65
2023/12/03 00:37:52;;;;;;;;;44.33;36.00;;;;;3.41;54.67;101499.97;4945361;28;72139;-65
2023/12/03 00:40:17;;;;;;;;;45.75;36.75;;;;;3.36;54.55;101501.59;4947942;28;48366;-65
2023/12/03 00:42:42;;;;;;;;;52.00;37.33;;;;;3.30;54.64;101488.59;4946749;28;72980;-66
2023/12/03 00:45:08;;;;;;;;;46.00;33.50;;;;;3.31;54.89;101494.63;4948441;28;56427;-65
2023/12/03 00:47:33;;;;;;;;;42.50;38.25;;;;;3.30;55.13;101496.34;4944558;28;46158;-65
2023/12/03 00:49:58;;;;;;;;;40.25;37.50;;;;;3.27;54.96;101496.28;4942729;28;45476;-65
2023/12/03 00:52:24;;;;;;;;;59.00;39.25;;;;;3.25;55.19;101495.41;4944860;28;45477;-65
2023/12/03 00:54:49;;;;;;;;;45.50;33.50;;;;;3.25;54.97;101485.06;4943554;28;46200;-63
2023/12/03 00:57:15;;;;;;;;;54.50;37.25;;;;;3.26;55.09;101488.50;4943710;28;57163;-64
2023/12/03 00:59:40;;;;;;;;;51.25;36.50;;;;;3.23;54.94;101482.44;4945213;28;59178;-65
2023/12/03 01:02:05;;;;;;;;;56.00;38.00;;;;;3.24;54.94;101488.50;4948224;28;45461;-65
2023/12/03 01:04:31;;;;;;;;;51.67;39.00;;;;;3.25;55.12;101491.97;4940835;28;71726;-65
2023/12/03 01:06:56;;;;;;;;;46.50;34.50;;;;;3.23;55.22;101485.03;4953208;28;45321;-66
2023/12/03 01:09:22;;;;;;;;;44.33;35.33;;;;;3.27;54.94;101492.84;4952064;28;64309;-65
2023/12/03 01:11:47;;;;;;;;;53.00;33.25;;;;;3.24;55.14;101488.50;4957800;28;45468;-65
2023/12/03 01:14:13;;;;;;;;;45.00;35.50;;;;;3.24;55.21;101496.28;4940039;28;61686;-64
2023/12/03 01:16:38;;;;;;;;;49.75;32.75;;;;;3.24;55.10;101483.34;4899821;28;1113494;-64
2023/12/03 01:19:04;;;;;;;;;45.00;34.75;;;;;3.24;54.98;101480.75;4945693;28;52787;-64
2023/12/03 01:21:29;;;;;;;;;38.25;31.00;;;;;3.23;55.08;101473.81;4945451;28;50931;-65
2023/12/03 01:23:54;;;;;;;;;41.00;27.25;;;;;3.22;55.03;101478.13;4957372;28;45970;-65
2023/12/03 01:26:20;;;;;;;;;41.50;30.50;;;;;3.23;55.16;101479.84;4943828;28;54783;-65
2023/12/03 01:28:45;;;;;;;;;33.50;29.50;;;;;3.21;55.06;101478.97;4941850;28;66408;-66
2023/12/03 01:31:11;;;;;;;;;43.75;29.50;;;;;3.21;55.03;101483.28;4942461;28;45397;-61
2023/12/03 01:33:36;;;;;;;;;37.50;29.75;;;;;3.19;55.09;101479.81;4942444;28;46184;-62
2023/12/03 01:36:01;;;;;;;;;45.00;33.67;;;;;3.19;55.40;101490.16;4941333;28;72899;-64
2023/12/03 01:38:27;;;;;;;;;48.25;35.50;;;;;3.18;55.20;101485.81;4942524;28;45499;-63
2023/12/03 01:40:53;;;;;;;;;46.33;35.67;;;;;3.15;55.38;101486.66;4939115;28;66891;-63
2023/12/03 01:43:18;;;;;;;;;39.25;31.50;;;;;3.13;55.41;101488.31;4938605;28;47572;-63
2023/12/03 01:45:45;;;;;;;;;46.67;30.33;;;;;3.11;55.47;101496.91;4941576;28;73258;-63
2023/12/03 01:48:11;;;;;;;;;37.75;27.25;;;;;3.09;55.58;101493.44;4941045;28;45334;-64
2023/12/03 01:50:38;;;;;;;;;39.25;27.75;;;;;3.07;55.56;101479.63;4947453;28;45389;-65
2023/12/03 01:53:04;;;;;;;;;52.00;36.75;;;;;3.02;55.43;101479.53;4930152;28;47177;-64
2023/12/03 01:55:29;;;;;;;;;40.00;31.50;;;;;3.00;55.66;101479.50;4943340;28;45444;-65
2023/12/03 01:57:55;;;;;;;;;35.33;31.67;;;;;2.96;55.59;101477.72;4940847;28;69501;-65
2023/12/03 02:00:21;;;;;;;;;59.00;36.00;;;;;2.90;55.87;101477.59;4924564;28;45557;-65
2023/12/03 02:02:46;;;;;;;;;47.25;30.75;;;;;2.89;55.74;101485.38;4942205;28;45404;-65
2023/12/03 02:05:11;;;;;;;;;47.00;34.25;;;;;2.88;55.66;101488.78;4941333;28;56764;-64
2023/12/03 02:07:37;;;;;;;;;50.00;31.25;;;;;2.85;55.71;101480.13;4948656;28;45581;-66
2023/12/03 02:10:04;;;;;;;;;34.75;30.25;;;;;2.85;55.60;101489.59;4942501;28;45426;-65
2023/12/03 02:12:30;;;;;;;;;33.50;25.25;;;;;2.84;55.87;101480.97;4941621;28;48416;-64
2023/12/03 02:14:55;;;;;;;;;40.00;32.75;;;;;2.81;55.94;101483.50;4947651;28;71866;-64
2023/12/03 02:17:20;;;;;;;;;32.67;27.33;;;;;2.81;55.97;101475.75;4941357;28;67004;-64
2023/12/03 02:19:46;;;;;;;;;52.33;35.00;;;;;2.81;55.98;101467.97;4939750;28;71011;-65
2023/12/03 02:22:11;;;;;;;;;39.00;31.67;;;;;2.80;55.99;101466.25;4940296;28;74318;-65
2023/12/03 02:24:36;;;;;;;;;45.33;30.00;;;;;2.78;56.01;101467.06;4937701;28;74214;-64
2023/12/03 02:27:02;;;;;;;;;38.00;33.33;;;;;2.76;55.96;101477.41;4941078;28;68233;-64
2023/12/03 02:29:27;;;;;;;;;39.75;29.00;;;;;2.77;56.12;101480.84;4941259;28;45354;-66
2023/12/03 02:31:52;;;;;;;;;38.25;30.25;;;;;2.77;56.06;101479.13;4939970;28;57898;-65
2023/12/03 02:34:18;;;;;;;;;43.33;34.67;;;;;2.75;56.36;101478.22;4940573;28;70482;-65
2023/12/03 02:36:43;;;;;;;;;53.00;32.25;;;;;2.74;56.10;101473.91;4940108;28;67866;-64
2023/12/03 02:39:09;;;;;;;;;54.75;32.50;;;;;2.69;56.64;101478.13;4938576;28;66113;-64
2023/12/03 02:41:34;;;;;;;;;38.00;29.25;;;;;2.70;56.52;101473.84;4938374;28;45391;-65
2023/12/03 02:43:59;;;;;;;;;35.50;31.50;;;;;2.70;56.37;101471.25;4935302;28;45412;-65
2023/12/03 02:46:25;;;;;;;;;43.75;28.25;;;;;2.71;56.67;101475.56;4939123;28;69353;-65
2023/12/03 02:48:50;;;;;;;;;49.00;37.75;;;;;2.71;56.73;101467.81;4937668;28;69744;-64
2023/12/03 02:51:16;;;;;;;;;47.25;35.00;;;;;2.70;56.83;101474.69;4940829;28;55664;-65
2023/12/03 02:53:44;;;;;;;;;45.75;34.50;;;;;2.65;56.75;101461.69;4936464;28;45306;-64
2023/12/03 02:56:11;;;;;;;;;32.25;29.25;;;;;2.61;56.92;101462.47;4954321;28;45372;-64
2023/12/03 02:58:37;;;;;;;;;45.00;35.25;;;;;2.59;57.23;101458.16;4932393;28;45275;-64
2023/12/03 03:01:02;;;;;;;;;45.25;38.00;;;;;2.57;57.06;101457.25;4940789;28;59518;-65
2023/12/03 03:03:27;;;;;;;;;44.50;35.50;;;;;2.55;57.29;101458.91;4940138;28;68289;-65
2023/12/03 03:05:53;;;;;;;;;57.33;36.67;;;;;2.54;57.26;101458.06;4939360;28;69471;-64
2023/12/03 03:08:18;;;;;;;;;46.00;34.25;;;;;2.54;57.33;101465.81;4940450;28;45306;-64
2023/12/03 03:10:43;;;;;;;;;46.50;34.50;;;;;2.54;57.08;101460.63;4939980;28;46248;-64
2023/12/03 03:13:09;;;;;;;;;47.67;30.33;;;;;2.54;57.07;101460.63;4954700;28;72454;-64
2023/12/03 03:15:34;;;;;;;;;43.50;31.00;;;;;2.55;56.78;101464.97;4943835;28;53778;-64
2023/12/03 03:18:00;;;;;;;;;33.75;26.50;;;;;2.57;57.00;101463.28;4941006;28;45315;-64
2023/12/03 03:20:25;;;;;;;;;34.25;26.50;;;;;2.59;57.04;101464.19;4940879;28;45509;-64
2023/12/03 03:22:51;;;;;;;;;32.67;28.33;;;;;2.62;56.85;101465.94;4939898;28;73281;-64
2023/12/03 03:25:16;;;;;;;;;28.75;22.50;;;;;2.66;56.77;101467.75;4939336;28;45390;-63
2023/12/03 03:27:42;;;;;;;;;43.50;25.75;;;;;2.68;56.79;101472.94;4942346;28;72183;-62
2023/12/03 03:30:07;;;;;;;;;31.75;22.00;;;;;2.69;56.87;101475.53;4938452;28;46140;-63
2023/12/03 03:32:33;;;;;;;;;37.25;27.00;;;;;2.70;56.76;101482.44;4939348;28;45267;-65
2023/12/03 03:34:58;;;;;;;;;43.00;29.50;;;;;2.72;56.63;101482.47;4939471;28;45521;-64
2023/12/03 03:37:24;;;;;;;;;38.00;27.00;;;;;2.73;56.60;101476.47;4939009;28;58994;-63
2023/12/03 03:39:49;;;;;;;;;37.75;30.25;;;;;2.76;56.82;101479.09;4955587;28;46621;-64
2023/12/03 03:42:14;;;;;;;;;35.25;26.00;;;;;2.81;56.68;101478.31;4939378;28;52115;-64
2023/12/03 03:44:40;;;;;;;;;37.00;27.67;;;;;2.87;56.67;101476.69;4939558;28;68187;-64
2023/12/03 03:47:05;;;;;;;;;35.75;31.00;;;;;2.90;56.47;101480.19;4936719;28;73048;-64
2023/12/03 03:49:30;;;;;;;;;44.75;30.25;;;;;2.93;56.69;101477.66;4938053;28;46580;-64
2023/12/03 03:51:56;;;;;;;;;40.00;30.50;;;;;2.96;56.56;101466.53;4954843;28;66556;-64
2023/12/03 03:54:21;;;;;;;;;38.50;29.50;;;;;2.99;56.51;101469.13;4939935;28;60072;-64
2023/12/03 03:56:47;;;;;;;;;29.25;26.75;;;;;3.00;56.51;101474.34;4940191;28;68050;-63
2023/12/03 03:59:13;;;;;;;;;39.75;29.00;;;;;3.02;56.48;101471.78;4940212;28;46880;-63
2023/12/03 04:01:43;;;;;;;;;34.00;26.00;;;;;3.03;56.21;101469.22;4939399;28;45315;-63
2023/12/03 04:04:08;;;;;;;;;48.25;29.75;;;;;3.02;56.13;101464.00;4938875;28;45374;-63
2023/12/03 04:06:39;;;;;;;;;38.67;25.00;;;;;3.01;56.32;101462.25;4939171;28;73205;-63
2023/12/03 04:09:06;;;;;;;;;38.00;27.00;;;;;2.99;56.11;101456.19;4932683;28;46047;-63
2023/12/03 04:11:32;;;;;;;;;39.00;26.75;;;;;2.98;56.07;101457.94;4940043;28;45483;-63
2023/12/03 04:13:57;;;;;;;;;38.50;22.50;;;;;2.96;56.12;101454.44;4940213;28;45433;-63
2023/12/03 04:16:23;;;;;;;;;47.00;29.00;;;;;2.91;55.92;101447.47;4937246;28;71932;-64
2023/12/03 04:18:49;;;;;;;;;42.75;28.75;;;;;2.89;56.00;101454.34;4939691;28;46267;-64
2023/12/03 04:21:15;;;;;;;;;48.33;29.67;;;;;2.88;56.27;101453.44;4939190;28;63443;-64
2023/12/03 04:23:40;;;;;;;;;39.50;28.00;;;;;2.86;56.27;101460.31;4938119;28;45428;-64
2023/12/03 04:26:09;;;;;;;;;35.00;28.00;;;;;2.85;55.94;101462.03;4919507;28;45754;-64
2023/12/03 04:28:34;;;;;;;;;40.75;29.00;;;;;2.83;56.05;101458.56;4942989;28;46014;-63
2023/12/03 04:30:59;;;;;;;;;38.67;26.33;;;;;2.81;56.23;101465.41;4941200;28;72166;-63
2023/12/03 04:33:25;;;;;;;;;45.50;29.75;;;;;2.78;56.38;101467.97;4942843;28;62579;-64
2023/12/03 04:35:51;;;;;;;;;37.25;27.00;;;;;2.76;56.31;101479.09;4943606;28;45600;-63
2023/12/03 04:38:16;;;;;;;;;37.75;26.50;;;;;2.73;56.38;101479.06;4942733;28;62173;-63
2023/12/03 04:40:41;;;;;;;;;46.00;29.33;;;;;2.71;56.70;101467.81;4942539;28;72200;-63
2023/12/03 04:43:07;;;;;;;;;29.75;18.75;;;;;2.69;56.58;101462.59;4942926;28;45511;-64
2023/12/03 04:45:32;;;;;;;;;37.00;30.00;;;;;2.69;56.82;101461.75;4948340;28;71687;-64
2023/12/03 04:47:57;;;;;;;;;44.33;29.33;;;;;2.64;56.75;101459.09;4942319;28;75376;-64
2023/12/03 04:50:23;;;;;;;;;43.75;27.50;;;;;2.63;56.92;101453.03;4942696;28;45267;-64
2023/12/03 04:52:48;;;;;;;;;38.67;31.33;;;;;2.59;56.95;101447.81;4942990;28;62554;-64
2023/12/03 04:55:13;;;;;;;;;39.75;28.25;;;;;2.57;57.03;101452.94;4942691;28;52328;-64
2023/12/03 04:57:39;;;;;;;;;35.25;27.50;;;;;2.56;57.07;101451.19;4942137;28;45429;-64
2023/12/03 05:00:07;;;;;;;;;34.00;25.00;;;;;2.58;56.92;101456.41;4939043;28;69904;-64
2023/12/03 05:02:32;;;;;;;;;38.25;33.75;;;;;2.60;57.07;101442.69;4941757;28;45380;-65
2023/12/03 05:04:57;;;;;;;;;42.50;29.50;;;;;2.59;56.93;101434.91;4943121;28;45485;-64
2023/12/03 05:07:23;;;;;;;;;45.00;31.00;;;;;2.55;56.95;101441.72;4941427;28;74957;-64
2023/12/03 05:09:48;;;;;;;;;40.75;29.50;;;;;2.54;57.31;101432.22;4942388;28;45430;-64
2023/12/03 05:12:13;;;;;;;;;43.50;34.25;;;;;2.54;57.33;101441.69;4941752;28;68297;-64
2023/12/03 05:14:39;;;;;;;;;39.33;29.00;;;;;2.57;57.44;101437.44;4943134;28;71711;-64
2023/12/03 05:17:05;;;;;;;;;35.50;25.75;;;;;2.59;57.18;101445.22;4957577;28;46033;-64
2023/12/03 05:19:30;;;;;;;;;50.25;35.25;;;;;2.60;57.29;101440.09;4942503;28;45577;-64
2023/12/03 05:21:56;;;;;;;;;38.75;29.25;;;;;2.64;57.42;101435.84;4943041;28;45279;-63
2023/12/03 05:24:21;;;;;;;;;39.67;34.33;;;;;2.67;57.24;101433.28;4941174;28;73069;-64
2023/12/03 05:26:46;;;;;;;;;37.00;26.00;;;;;2.70;57.19;101432.50;4943403;28;75732;-64
2023/12/03 05:29:12;;;;;;;;;46.00;33.33;;;;;2.72;57.24;101430.78;4948024;28;61372;-64
2023/12/03 05:31:44;;;;;;;;;37.00;29.75;;;;;2.75;57.27;101433.44;4943071;28;61300;-64
2023/12/03 05:34:09;;;;;;;;;40.50;32.25;;;;;2.75;57.23;101425.69;4941171;28;45408;-64
2023/12/03 05:36:34;;;;;;;;;51.75;30.00;;;;;2.76;57.17;101433.47;4942693;28;46301;-64
2023/12/03 05:39:00;;;;;;;;;39.00;30.00;;;;;2.75;57.29;101421.38;4938904;28;71878;-64
2023/12/03 05:41:25;;;;;;;;;44.00;32.33;;;;;2.76;57.14;101423.13;4942009;28;67001;-64
2023/12/03 05:43:51;;;;;;;;;47.33;27.00;;;;;2.79;57.33;101422.28;4939785;28;73154;-64
2023/12/03 05:46:17;;;;;;;;;56.50;36.50;;;;;2.81;57.27;101418.00;4941945;28;47383;-64
2023/12/03 05:48:42;;;;;;;;;42.67;33.67;;;;;2.83;57.19;101403.38;4941865;28;61818;-64
2023/12/03 05:51:09;;;;;;;;;43.75;33.25;;;;;2.85;57.46;101406.88;4942298;28;45514;-64
2023/12/03 05:53:34;;;;;;;;;42.25;35.00;;;;;2.85;57.34;101409.44;4941472;28;45552;-65
2023/12/03 05:56:00;;;;;;;;;36.25;30.50;;;;;2.87;57.40;101422.41;4954704;28;67562;-64
2023/12/03 05:58:25;;;;;;;;;37.50;28.50;;;;;2.88;57.41;101418.97;4941949;28;45243;-65
2023/12/03 06:00:51;;;;;;;;;41.00;25.00;;;;;2.90;57.36;101425.03;4942117;28;45484;-65
2023/12/03 06:03:16;;;;;;;;;36.67;27.67;;;;;2.94;57.34;101435.47;4939277;28;64336;-65
2023/12/03 06:05:41;;;;;;;;;40.67;26.33;;;;;2.96;57.21;101425.16;4940978;28;70680;-65
2023/12/03 06:08:06;;;;;;;;;37.75;27.25;;;;;3.01;56.94;101436.41;4942150;28;45167;-64
2023/12/03 06:10:32;;;;;;;;;32.50;25.50;;;;;3.04;56.91;101439.91;4942280;28;45296;-64
2023/12/03 06:12:58;;;;;;;;;36.00;28.67;;;;;3.06;56.94;101432.19;4955561;28;65568;-64
2023/12/03 06:15:23;;;;;;;;;42.67;27.00;;;;;3.07;56.71;101426.19;4940214;28;67689;-65
2023/12/03 06:17:48;;;;;;;;;53.67;33.00;;;;;3.04;56.72;101418.38;4940536;28;72834;-65
2023/12/03 06:20:14;;;;;;;;;44.50;34.75;;;;;3.02;56.97;101407.13;4942005;28;45349;-65
2023/12/03 06:22:39;;;;;;;;;37.00;27.33;;;;;2.97;56.70;101406.19;4939979;28;73242;-65
2023/12/03 06:25:05;;;;;;;;;37.25;30.75;;;;;2.88;56.72;101400.88;4935142;28;46623;-65
2023/12/03 06:27:30;;;;;;;;;41.25;27.00;;;;;2.85;56.83;101407.75;4941685;28;45318;-65
2023/12/03 06:29:55;;;;;;;;;44.75;29.50;;;;;2.81;56.91;101413.69;4940965;28;54904;-64
2023/12/03 06:32:21;;;;;;;;;43.33;30.33;;;;;2.81;57.11;101403.38;4936784;28;69394;-64
2023/12/03 06:34:46;;;;;;;;;33.50;29.00;;;;;2.83;57.22;101406.88;4940213;28;57617;-64
2023/12/03 06:37:11;;;;;;;;;39.33;27.00;;;;;2.85;57.31;101404.28;4941173;28;72317;-67
2023/12/03 06:39:37;;;;;;;;;41.00;33.25;;;;;2.86;57.23;101398.28;4941290;28;45513;-65
2023/12/03 06:42:02;;;;;;;;;55.00;32.33;;;;;2.92;57.30;101410.41;4940896;28;70986;-64
2023/12/03 06:44:28;;;;;;;;;44.50;31.00;;;;;2.90;57.43;101407.81;4942410;28;45494;-65
2023/12/03 06:46:53;;;;;;;;;49.50;32.25;;;;;2.95;57.42;101408.75;4954699;28;65621;-65
2023/12/03 06:49:18;;;;;;;;;41.33;31.33;;;;;2.93;57.25;101415.63;4944024;28;68584;-64
2023/12/03 06:51:44;;;;;;;;;43.00;29.00;;;;;2.95;57.11;101426.00;4944233;28;59653;-63
2023/12/03 06:54:09;;;;;;;;;33.75;24.00;;;;;2.93;57.19;101415.63;4941025;28;45928;-64
2023/12/03 06:56:34;;;;;;;;;49.00;31.00;;;;;2.91;57.33;101411.28;4941764;28;66098;-64
2023/12/03 06:59:00;;;;;;;;;37.33;27.33;;;;;2.95;57.49;101416.50;4941023;28;60938;-63
2023/12/03 07:01:25;;;;;;;;;48.25;29.50;;;;;2.95;57.26;101413.06;4940730;28;59812;-63
2023/12/03 07:03:50;;;;;;;;;33.00;27.50;;;;;2.96;57.44;101418.25;4940840;28;51347;-63
2023/12/03 07:06:16;;;;;;;;;40.75;27.25;;;;;2.97;57.30;101419.97;4941746;28;45231;-64
2023/12/03 07:08:41;;;;;;;;;37.75;27.25;;;;;2.93;57.25;101410.44;4940577;28;45484;-64
2023/12/03 07:11:07;;;;;;;;;42.25;32.50;;;;;2.95;57.19;101418.22;4939584;28;55667;-63
2023/12/03 07:13:32;;;;;;;;;38.50;26.00;;;;;2.94;57.52;101419.97;4941049;28;46224;-64
2023/12/03 07:15:57;;;;;;;;;42.25;28.25;;;;;2.97;57.31;101414.81;4939847;28;73307;-63
2023/12/03 07:18:23;;;;;;;;;34.33;28.00;;;;;2.95;57.52;101413.06;4944465;28;67001;-63
2023/12/03 07:20:48;;;;;;;;;36.25;27.00;;;;;2.94;57.35;101419.97;4940089;28;45422;-63
2023/12/03 07:23:14;;;;;;;;;31.00;26.00;;;;;2.94;57.46;101424.22;4939022;28;75860;-63
2023/12/03 07:25:39;;;;;;;;;39.00;26.50;;;;;2.94;57.27;101422.53;4940195;28;62353;-64
2023/12/03 07:28:04;;;;;;;;;32.00;27.00;;;;;2.94;57.25;101427.72;4939270;28;68330;-64
2023/12/03 07:30:30;;;;;;;;;39.50;25.75;;;;;2.93;57.41;101425.97;4940774;28;45374;-64
2023/12/03 07:32:55;;;;;;;;;33.25;25.00;;;;;2.94;57.46;101425.13;4940856;28;46908;-64
2023/12/03 07:35:20;;;;;;;;;35.00;24.75;;;;;2.95;57.29;101426.00;4938395;28;72464;-64
2023/12/03 07:37:45;;;;;;;;;38.00;22.67;;;;;2.93;57.23;101427.69;4939877;28;68716;-64
2023/12/03 07:40:11;;;;;;;;;36.75;28.75;;;;;2.92;57.36;101420.75;4940724;28;56216;-64
2023/12/03 07:42:36;;;;;;;;;36.25;26.00;;;;;2.90;57.48;101427.63;4955155;28;48144;-64
2023/12/03 07:45:02;;;;;;;;;37.00;26.33;;;;;2.85;57.34;101433.59;4939336;28;71980;-63
2023/12/03 07:47:29;;;;;;;;;39.75;28.50;;;;;2.84;57.28;101429.28;4936417;28;45366;-63
2023/12/03 07:49:55;;;;;;;;;34.75;26.25;;;;;2.87;57.45;101432.75;4940640;28;45441;-66
2023/12/03 07:52:20;;;;;;;;;37.75;29.50;;;;;2.91;57.47;101432.81;4941020;28;45583;-65
2023/12/03 07:54:46;;;;;;;;;38.33;30.67;;;;;2.96;57.65;101436.34;4938169;28;71159;-65
2023/12/03 07:57:11;;;;;;;;;36.00;26.50;;;;;2.99;57.36;101420.91;4940644;28;45494;-65
2023/12/03 07:59:37;;;;;;;;;38.50;25.00;;;;;3.03;57.55;101420.09;4940882;28;45224;-64
2023/12/03 08:02:02;;;;;;;;;33.50;24.00;;;;;3.10;57.36;101417.56;4941173;28;45181;-66
2023/12/03 08:04:28;;;;;;;;;36.50;28.75;;;;;3.13;57.63;101415.03;4942274;28;45302;-63
2023/12/03 08:06:54;;;;;;;;;34.25;27.00;;;;;3.17;57.19;101407.38;4942521;28;45461;-65
2023/12/03 08:09:20;;;;;;;;;32.25;26.25;;;;;3.17;57.47;101396.13;4944363;28;45793;-63
2023/12/03 08:11:45;;;;;;;;;42.00;25.50;;;;;3.18;57.68;101396.16;4941059;28;66138;-60
2023/12/03 08:14:11;;;;;;;;;37.00;26.75;;;;;3.21;57.44;101385.00;4943814;28;45500;-68
2023/12/03 08:16:36;;;;;;;;;33.67;27.33;;;;;3.23;57.59;101385.88;4940717;28;69186;-62
2023/12/03 08:19:01;;;;;;;;;31.33;26.67;;;;;3.22;57.58;101378.97;4949457;28;71585;-63
2023/12/03 08:21:27;;;;;;;;;38.00;23.25;;;;;3.24;57.65;101392.81;4945055;28;46263;-63
2023/12/03 08:23:52;;;;;;;;;35.25;26.25;;;;;3.20;57.72;101368.59;4943895;28;45411;-65
2023/12/03 08:26:17;;;;;;;;;43.75;32.00;;;;;3.20;57.77;101380.66;4925734;28;56757;-70
2023/12/03 08:28:43;;;;;;;;;34.00;26.67;;;;;3.19;57.84;101386.69;4943562;28;71443;-66
2023/12/03 08:31:08;;;;;;;;;43.75;28.75;;;;;3.21;57.79;101379.81;4943660;28;46357;-66
2023/12/03 08:33:33;;;;;;;;;42.25;32.50;;;;;3.21;57.62;101382.41;4942054;28;45327;-65
2023/12/03 08:35:59;;;;;;;;;34.33;26.67;;;;;3.18;57.78;101392.72;4945030;28;67327;-66
2023/12/03 08:38:24;;;;;;;;;37.00;30.67;;;;;3.19;57.96;101387.56;4942657;28;73269;-64
2023/12/03 08:40:50;;;;;;;;;33.25;27.25;;;;;3.21;58.01;101385.00;4945135;28;46131;-64
2023/12/03 08:43:15;;;;;;;;;23.25;21.50;;;;;3.19;57.57;101378.94;4943320;28;47109;-63
2023/12/03 08:45:41;;;;;;;;;35.75;26.75;;;;;3.19;57.99;101368.59;4945227;28;45216;-65
2023/12/03 08:48:06;;;;;;;;;44.75;28.25;;;;;3.16;57.33;101376.31;4945079;28;55515;-65
2023/12/03 08:50:31;;;;;;;;;38.50;27.25;;;;;3.15;57.88;101369.38;4942790;28;46011;-65
2023/12/03 08:52:57;;;;;;;;;31.75;26.75;;;;;3.15;57.51;101365.09;4954223;28;45199;-65
2023/12/03 08:55:23;;;;;;;;;32.75;26.00;;;;;3.19;57.72;101360.84;4944543;28;45287;-65
2023/12/03 08:57:48;;;;;;;;;39.75;27.50;;;;;3.20;57.72;101365.16;4946451;28;45417;-66
2023/12/03 09:00:15;;;;;;;;;36.25;25.25;;;;;3.26;57.76;101365.25;4942836;28;45937;-65
2023/12/03 09:02:45;;;;;;;;;35.75;27.25;;;;;3.31;57.42;101367.88;4941213;28;45342;-64
2023/12/03 09:05:11;;;;;;;;;28.25;24.25;;;;;3.30;57.12;101379.94;4944599;28;46418;-65
2023/12/03 09:07:37;;;;;;;;;31.25;22.50;;;;;3.33;57.30;101369.66;4954594;28;45319;-63
2023/12/03 09:10:03;;;;;;;;;33.00;27.00;;;;;3.38;57.37;101369.69;4955672;28;46097;-66
2023/12/03 09:12:28;;;;;;;;;35.00;26.25;;;;;3.41;57.41;101378.34;4965136;28;45654;-65
2023/12/03 09:14:53;;;;;;;;;43.67;24.67;;;;;3.47;57.30;101367.25;4951462;28;68130;-65
2023/12/03 09:17:19;;;;;;;;;36.50;26.00;;;;;3.53;57.05;101372.47;4943709;28;71579;-65
2023/12/03 09:19:44;;;;;;;;;42.75;23.25;;;;;3.56;57.07;101369.03;4941948;28;45526;-65
2023/12/03 09:22:10;;;;;;;;;35.50;25.00;;;;;3.58;57.07;101364.78;4941955;28;73732;-65
2023/12/03 09:24:35;;;;;;;;;37.25;27.50;;;;;3.64;57.15;101362.25;4934125;28;68328;-65
2023/12/03 09:27:00;;;;;;;;;39.67;28.00;;;;;3.68;56.87;101365.75;4942376;28;72838;-64
2023/12/03 09:29:25;;;;;;;;;27.00;22.67;;;;;3.71;56.72;101369.22;4940884;28;74555;-65
2023/12/03 09:31:51;;;;;;;;;30.67;22.67;;;;;3.73;56.62;101362.34;4944125;28;73174;-66
2023/12/03 09:34:16;;;;;;;;;96.75;66.25;;;;;3.73;56.55;101361.50;4953505;28;45291;-65
2023/12/03 09:36:41;;;;;;;;;47.67;35.67;;;;;3.67;56.41;101351.06;4949834;28;73223;-64
2023/12/03 09:39:07;;;;;;;;;39.00;23.75;;;;;3.72;56.56;101349.38;4943858;28;46295;-63
2023/12/03 09:41:38;;;;;;;;;37.25;25.75;;;;;3.72;56.53;101339.03;4954574;28;45750;-65
2023/12/03 09:44:14;;;;;;;;;37.00;29.75;;;;;3.75;56.45;101360.66;4932605;28;45493;-66
2023/12/03 09:46:40;;;;;;;;;27.00;21.75;;;;;3.73;56.41;101349.41;4952658;28;45365;-66
2023/12/03 09:49:11;;;;;;;;;31.50;23.50;;;;;3.77;56.21;101351.19;4922632;28;46121;-69
2023/12/03 09:51:40;;;;;;;;;34.25;23.25;;;;;3.78;56.04;101352.91;4941363;28;45421;-65
2023/12/03 09:54:07;;;;;;;;;28.25;19.75;;;;;3.81;56.12;101352.09;4941990;28;45446;-66
2023/12/03 09:56:33;;;;;;;;;28.75;20.25;;;;;3.79;55.54;101351.22;4945563;28;45321;-64
2023/12/03 09:58:59;;;;;;;;;32.75;19.50;;;;;3.87;55.77;101349.56;4948455;28;46488;-62
2023/12/03 10:01:25;;;;;;;;;30.00;25.50;;;;;3.95;55.63;101363.47;4953421;28;62502;-61
2023/12/03 10:03:53;;;;;;;;;25.25;14.50;;;;;3.99;55.67;101359.19;4947109;28;45556;-66
2023/12/03 10:06:21;;;;;;;;;33.25;23.75;;;;;4.02;55.41;101366.09;4941493;28;45203;-63
2023/12/03 10:08:48;;;;;;;;;21.75;16.00;;;;;4.05;55.44;101353.19;4947721;28;46367;-64
2023/12/03 10:11:17;;;;;;;;;28.25;20.00;;;;;4.09;55.13;101358.44;4940483;28;45606;-67
2023/12/03 10:13:42;;;;;;;;;31.50;22.25;;;;;4.11;55.26;101359.31;4949385;28;45621;-65
2023/12/03 10:16:10;;;;;;;;;29.25;21.50;;;;;4.13;55.12;101361.91;4956418;28;56485;-65
2023/12/03 10:18:36;;;;;;;;;37.00;20.75;;;;;4.13;54.88;101357.59;4932253;28;46411;-63
2023/12/03 10:21:06;;;;;;;;;31.50;21.50;;;;;4.17;55.01;101356.75;4944452;28;45340;-64
2023/12/03 10:23:31;;;;;;;;;34.00;20.00;;;;;4.23;54.54;101353.34;4942095;28;45453;-62
2023/12/03 10:26:12;;;;;;;;;30.25;21.00;;;;;4.27;54.63;101352.53;4950215;28;61201;-63
2023/12/03 10:28:38;;;;;;;;;28.75;23.50;;;;;4.31;54.78;101351.72;4937902;28;46219;-63
2023/12/03 10:31:04;;;;;;;;;28.75;20.00;;;;;4.31;54.74;101346.53;4947175;28;45567;-65
2023/12/03 10:33:30;;;;;;;;;28.25;21.50;;;;;4.32;54.43;101352.56;4943147;28;45326;-65
2023/12/03 10:36:02;;;;;;;;;27.25;20.00;;;;;4.32;54.74;101355.16;4940592;28;69139;-65
2023/12/03 10:38:37;;;;;;;;;29.50;15.75;;;;;4.31;54.50;101341.34;4953217;28;46960;-65
2023/12/03 10:41:07;;;;;;;;;31.00;19.50;;;;;4.30;54.24;101333.56;4941373;28;45908;-63
2023/12/03 10:43:34;;;;;;;;;26.00;19.00;;;;;4.27;54.01;101315.41;4948571;28;47149;-64
2023/12/03 10:46:00;;;;;;;;;28.50;23.75;;;;;4.28;54.23;101306.78;4947674;28;45456;-65
2023/12/03 10:48:27;;;;;;;;;34.50;22.75;;;;;4.31;54.26;101302.47;4956071;28;62874;-65
2023/12/03 10:50:55;;;;;;;;;23.25;20.25;;;;;4.32;53.94;101303.34;4957844;28;45831;-64
2023/12/03 10:53:21;;;;;;;;;34.50;24.75;;;;;4.35;54.24;101300.78;4924221;28;45378;-65
2023/12/03 10:55:48;;;;;;;;;34.75;20.00;;;;;4.37;54.12;101294.78;4937659;28;71887;-62
2023/12/03 10:58:19;;;;;;;;;26.75;20.25;;;;;4.37;54.03;101297.34;4950744;28;45528;-64
2023/12/03 11:00:51;;;;;;;;;30.25;23.75;;;;;4.39;54.13;101292.16;4947583;28;45307;-62
2023/12/03 11:03:42;;;;;;;;;28.00;24.25;;;;;4.45;54.02;101287.03;4941266;28;45480;-62
2023/12/03 11:06:09;;;;;;;;;36.00;22.25;;;;;4.51;53.79;101287.06;4946746;28;45323;-62
2023/12/03 11:08:34;;;;;;;;;24.25;20.50;;;;;4.56;53.97;101285.38;4946252;28;47463;-61
2023/12/03 11:11:00;;;;;;;;;26.25;21.25;;;;;4.56;53.84;101277.59;4946078;28;47605;-60